Time;durP1;ratioP1;P1;durP2;ratioP2;P2;SDS_P1;SDS_P2;PMS_P1;PMS_P2;Temp;Humidity;BMP_temperature;BMP_pressure;BME280_temperature;BME280_humidity;BME280_pressure;Samples;Min_cycle;Max_cycle;Signal;HPM_P1;HPM_P2
2023/07/20 00:01:11;;;;;;;4.30;2.75;;;;;;;21.42;52.48;96639.13;10530629;28;20408;-32
2023/07/20 00:06:12;;;;;;;10.33;2.23;;;;;;;21.35;52.68;96645.16;10527807;28;20287;-32
2023/07/20 00:11:13;;;;;;;6.37;2.30;;;;;;;21.33;53.30;96638.38;10532106;28;20078;-31
2023/07/20 00:16:13;;;;;;;3.63;2.38;;;;;;;21.26;53.13;96636.78;10533485;28;20032;-32
2023/07/20 00:21:14;;;;;;;4.43;2.90;;;;;;;21.27;53.38;96629.13;10520604;28;20474;-32
2023/07/20 00:26:15;;;;;;;7.57;2.60;;;;;;;21.25;53.53;96646.13;10530180;28;20520;-31
2023/07/20 00:31:15;;;;;;;3.30;2.25;;;;;;;21.22;53.67;96647.88;10528326;28;20169;-30
2023/07/20 00:36:16;;;;;;;4.97;2.70;;;;;;;21.20;54.04;96640.25;10503563;28;20081;-32
2023/07/20 00:41:17;;;;;;;5.68;3.20;;;;;;;21.15;54.22;96638.63;10510769;28;20419;-31
2023/07/20 00:46:18;;;;;;;5.05;2.53;;;;;;;21.14;54.10;96642.84;10532186;28;20024;-31
2023/07/20 00:51:21;;;;;;;3.67;2.85;;;;;;;21.13;53.97;96641.16;10502548;28;20541;-32
2023/07/20 00:56:22;;;;;;;5.95;2.80;;;;;;;21.09;53.78;96628.50;10531816;28;20036;-32
2023/07/20 01:01:22;;;;;;;4.20;2.70;;;;;;;21.07;53.83;96630.22;10519501;28;20132;-32
2023/07/20 01:06:49;;;;;;;5.95;2.75;;;;;;;21.09;54.34;96631.91;10520812;28;20490;-32
2023/07/20 01:11:52;;;;;;;;;;;;;;;21.10;54.10;96631.03;10523119;28;20101;-32
2023/07/20 01:16:52;;;;;;;5.45;2.72;;;;;;;21.01;55.07;96623.50;10519770;28;19916;-32
2023/07/20 01:22:00;;;;;;;3.87;2.20;;;;;;;21.01;54.79;96626.03;10525596;28;20032;-32
2023/07/20 01:27:21;;;;;;;4.55;2.00;;;;;;;20.95;55.64;96626.09;10530485;28;20031;-30
2023/07/20 01:32:24;;;;;;;7.40;2.20;;;;;;;20.87;55.46;96622.81;10532629;28;20399;-32
2023/07/20 01:37:29;;;;;;;5.10;2.42;;;;;;;20.91;55.68;96624.47;10518139;28;20032;-31
2023/07/20 01:42:30;;;;;;;4.38;2.20;;;;;;;20.88;56.31;96621.13;10538098;28;20507;-31
2023/07/20 01:47:30;;;;;;;4.43;2.33;;;;;;;20.84;56.36;96615.19;10534369;28;20105;-31
2023/07/20 01:52:31;;;;;;;3.80;2.00;;;;;;;20.89;56.37;96616.00;10511987;28;20032;-31
2023/07/20 01:57:31;;;;;;;3.38;1.95;;;;;;;20.90;56.47;96617.66;10516740;28;20111;-31
2023/07/20 02:02:34;;;;;;;5.35;2.30;;;;;;;20.83;56.54;96610.97;10514136;28;20028;-31
2023/07/20 02:07:35;;;;;;;5.28;2.78;;;;;;;20.81;55.91;96612.66;10519777;28;20489;-32
2023/07/20 02:12:35;;;;;;;3.67;2.57;;;;;;;20.78;56.61;96611.84;10512206;28;20185;-30
2023/07/20 02:17:36;;;;;;;6.63;3.30;;;;;;;20.75;56.56;96612.75;10530078;28;20281;-31
2023/07/20 02:22:38;;;;;;;4.05;2.60;;;;;;;20.70;56.80;96603.44;10537629;28;20402;-31
2023/07/20 02:27:39;;;;;;;7.45;2.53;;;;;;;20.68;56.64;96605.16;10537598;28;20409;-32
2023/07/20 02:32:39;;;;;;;8.18;2.53;;;;;;;20.69;56.36;96596.66;10520357;28;20036;-31
2023/07/20 02:37:40;;;;;;;2.87;2.13;;;;;;;20.65;56.75;96606.03;10535670;28;20039;-32
2023/07/20 02:42:40;;;;;;;8.80;2.83;;;;;;;20.62;56.55;96607.78;10537649;28;20655;-31
2023/07/20 02:47:40;;;;;;;3.92;3.03;;;;;;;20.56;56.49;96608.69;10512992;28;20301;-32
2023/07/20 02:52:41;;;;;;;4.93;2.70;;;;;;;20.55;56.46;96614.63;10511158;28;20036;-31
2023/07/20 02:57:41;;;;;;;3.30;2.57;;;;;;;20.53;55.25;96606.16;10534035;28;20041;-31
2023/07/20 03:02:42;;;;;;;10.60;2.47;;;;;;;20.51;55.43;96602.81;10511926;28;20822;-31
2023/07/20 03:07:43;;;;;;;5.40;3.30;;;;;;;20.51;55.30;96607.91;10515702;28;20493;-31
2023/07/20 03:12:43;;;;;;;5.00;2.80;;;;;;;20.54;55.10;96604.47;10526277;28;20406;-31
2023/07/20 03:17:44;;;;;;;6.93;2.60;;;;;;;20.54;54.59;96614.66;10517480;28;20028;-31
2023/07/20 03:22:45;;;;;;;5.13;2.95;;;;;;;20.50;54.96;96608.75;10534576;28;20489;-31
2023/07/20 03:27:45;;;;;;;5.53;2.78;;;;;;;20.50;54.57;96606.22;10510860;28;20027;-31
2023/07/20 03:32:46;;;;;;;6.10;2.67;;;;;;;20.48;55.00;96607.91;10531085;28;20036;-32
2023/07/20 03:37:46;;;;;;;3.13;2.83;;;;;;;20.47;54.94;96616.41;10512352;28;20119;-31
2023/07/20 03:42:47;;;;;;;4.27;2.50;;;;;;;20.45;55.04;96625.75;10530162;28;20036;-31
2023/07/20 03:47:48;;;;;;;5.57;3.22;;;;;;;20.44;55.40;96616.44;10515825;28;20040;-31
2023/07/20 03:52:48;;;;;;;9.07;3.05;;;;;;;20.46;55.06;96619.78;10501070;28;20025;-31
2023/07/20 03:57:51;;;;;;;5.40;2.93;;;;;;;20.47;55.28;96621.47;10534681;28;20041;-31
2023/07/20 04:02:51;;;;;;;7.15;2.30;;;;;;;20.48;55.38;96623.16;10524429;28;20152;-31
2023/07/20 04:07:52;;;;;;;5.90;2.70;;;;;;;20.57;55.54;96625.63;10533808;28;20113;-31
2023/07/20 04:12:52;;;;;;;4.38;2.50;;;;;;;20.56;55.16;96621.38;10478151;28;20032;-31
2023/07/20 04:17:53;;;;;;;9.00;2.50;;;;;;;20.66;54.67;96635.72;10468457;28;20481;-32
2023/07/20 04:22:55;;;;;;;3.13;2.53;;;;;;;20.54;54.82;96628.19;10470922;28;20118;-32
2023/07/20 04:27:56;;;;;;;4.25;2.63;;;;;;;20.49;54.66;96634.19;10531514;28;20718;-31
2023/07/20 04:32:57;;;;;;;7.00;3.25;;;;;;;20.42;54.85;96627.47;10530570;28;20034;-32
2023/07/20 04:37:57;;;;;;;7.38;2.83;;;;;;;20.49;54.92;96635.06;10524890;28;20489;-32
2023/07/20 04:42:59;;;;;;;4.60;3.03;;;;;;;20.46;54.96;96634.22;10525722;28;20032;-31
2023/07/20 04:48:00;;;;;;;5.53;2.93;;;;;;;20.44;54.70;96634.25;10508547;28;20020;-31
2023/07/20 04:53:01;;;;;;;5.75;3.17;;;;;;;20.45;54.24;96630.84;10513225;28;20115;-31
2023/07/20 04:58:03;;;;;;;4.00;2.90;;;;;;;20.42;54.64;96631.72;10509267;28;20023;-33
2023/07/20 05:03:05;;;;;;;6.35;3.30;;;;;;;20.53;54.32;96631.59;10506421;28;20438;-33
2023/07/20 05:08:06;;;;;;;4.85;3.08;;;;;;;20.62;54.26;96633.22;10505053;28;20031;-33
2023/07/20 05:13:06;;;;;;;5.50;2.80;;;;;;;20.45;54.60;96637.63;10509319;28;20067;-33
2023/07/20 05:18:07;;;;;;;6.70;2.92;;;;;;;20.39;54.84;96633.41;10518968;28;20428;-33
2023/07/20 05:23:08;;;;;;;5.20;2.47;;;;;;;20.36;55.22;96631.78;10517078;28;20038;-33
2023/07/20 05:28:08;;;;;;;4.07;3.00;;;;;;;20.38;55.37;96631.75;10534004;28;20504;-34
2023/07/20 05:33:09;;;;;;;7.80;3.40;;;;;;;20.39;55.88;96637.69;10520004;28;20582;-32
2023/07/20 05:38:09;;;;;;;6.17;2.83;;;;;;;20.38;56.26;96626.66;10523171;28;20331;-33
2023/07/20 05:43:10;;;;;;;6.37;3.33;;;;;;;20.46;56.04;96640.16;10527513;28;20440;-33
2023/07/20 05:48:11;;;;;;;9.13;3.70;;;;;;;20.46;56.00;96637.59;10530417;28;20039;-33
2023/07/20 05:53:11;;;;;;;4.20;2.95;;;;;;;20.45;55.46;96637.63;10534925;28;20036;-34
2023/07/20 05:58:12;;;;;;;4.05;3.22;;;;;;;20.46;55.48;96645.22;10527429;28;20040;-33
2023/07/20 06:03:12;;;;;;;7.60;3.40;;;;;;;20.41;56.25;96646.13;10533949;28;20394;-33
2023/07/20 06:08:13;;;;;;;6.60;3.45;;;;;;;20.44;56.21;96641.88;10520180;28;20365;-33
2023/07/20 06:13:13;;;;;;;4.47;3.43;;;;;;;20.42;55.78;96652.06;10539037;28;20470;-33
2023/07/20 06:18:13;;;;;;;3.40;3.10;;;;;;;20.44;55.66;96646.94;10533780;28;20486;-33
2023/07/20 06:23:14;;;;;;;8.55;3.90;;;;;;;20.41;55.98;96646.13;10545846;28;20553;-33
2023/07/20 06:28:14;;;;;;;7.10;3.63;;;;;;;20.45;56.06;96643.53;10518101;28;20089;-33
2023/07/20 06:33:15;;;;;;;6.55;3.05;;;;;;;20.56;55.97;96638.38;10546525;28;20074;-33
2023/07/20 06:38:15;;;;;;;4.87;3.40;;;;;;;20.64;55.94;96639.13;10531034;28;20040;-33
2023/07/20 06:43:16;;;;;;;6.03;3.80;;;;;;;20.63;55.67;96642.53;10541464;28;20032;-33
2023/07/20 06:48:16;;;;;;;4.88;3.25;;;;;;;20.71;55.35;96639.06;10534556;28;20038;-33
2023/07/20 06:53:17;;;;;;;6.10;3.30;;;;;;;20.79;55.23;96641.53;10537443;28;20409;-33
2023/07/20 06:58:18;;;;;;;5.78;2.97;;;;;;;20.77;53.39;96636.47;10536673;28;20441;-34
2023/07/20 07:03:21;;;;;;;4.13;3.13;;;;;;;20.85;52.92;96629.59;10536524;28;20043;-35
2023/07/20 07:08:22;;;;;;;4.75;3.00;;;;;;;21.05;53.80;96631.94;10534005;28;20031;-33
2023/07/20 07:13:22;;;;;;;3.80;3.07;;;;;;;21.04;52.91;96628.53;10528201;28;20051;-33
2023/07/20 07:18:24;;;;;;;3.95;2.63;;;;;;;21.06;52.44;96626.00;10529650;28;20392;-33
2023/07/20 07:23:25;;;;;;;4.85;3.05;;;;;;;21.01;51.71;96628.59;10543447;28;20043;-33
2023/07/20 07:28:25;;;;;;;4.80;2.73;;;;;;;21.07;51.73;96633.59;10532098;28;20032;-33
2023/07/20 07:33:26;;;;;;;5.93;2.60;;;;;;;20.94;51.55;96633.75;10532423;28;20039;-33
2023/07/20 07:38:26;;;;;;;4.25;2.88;;;;;;;20.93;51.49;96642.25;10532851;28;20028;-33
2023/07/20 07:43:27;;;;;;;13.17;3.23;;;;;;;21.21;52.16;96631.72;10526294;28;20031;-34
2023/07/20 07:48:27;;;;;;;5.93;3.03;;;;;;;21.16;51.84;96633.50;10527906;28;20028;-34
2023/07/20 07:53:27;;;;;;;4.87;3.07;;;;;;;21.25;51.76;96625.75;10527370;28;20084;-33
2023/07/20 07:58:28;;;;;;;4.53;2.70;;;;;;;21.22;51.50;96633.41;10522539;28;20322;-33
2023/07/20 08:03:28;;;;;;;5.57;2.40;;;;;;;21.12;50.15;96634.41;10527916;28;20286;-33
2023/07/20 08:08:31;;;;;;;7.17;2.73;;;;;;;21.18;49.90;96626.69;10523214;28;20486;-33
2023/07/20 08:13:31;;;;;;;5.18;2.20;;;;;;;21.10;49.12;96631.03;10527254;28;20294;-33
2023/07/20 08:18:32;;;;;;;4.13;2.40;;;;;;;21.16;49.15;96625.88;10541617;28;20040;-34
2023/07/20 08:23:32;;;;;;;5.68;2.80;;;;;;;21.24;50.10;96629.13;10524783;28;20055;-33
2023/07/20 08:28:34;;;;;;;4.50;2.83;;;;;;;21.24;50.59;96634.22;10532458;28;20481;-34
2023/07/20 08:33:36;;;;;;;4.85;2.80;;;;;;;21.39;51.03;96617.94;10530830;28;20039;-34
2023/07/20 08:38:37;;;;;;;4.07;2.60;;;;;;;21.23;50.36;96632.56;10534304;28;20035;-33
2023/07/20 08:43:42;;;;;;;6.93;2.57;;;;;;;21.25;50.61;96623.22;10529815;28;20501;-34
2023/07/20 08:48:44;;;;;;;4.70;2.70;;;;;;;21.27;50.67;96613.00;10538038;28;20028;-33
2023/07/20 08:53:45;;;;;;;7.70;2.92;;;;;;;21.63;51.50;96615.91;10528006;28;20405;-34
2023/07/20 08:58:46;;;;;;;13.60;3.65;;;;;;;21.31;51.32;96618.03;10523556;28;20032;-33
2023/07/20 09:03:47;;;;;;;16.00;3.88;;;;;;;21.44;50.96;96616.16;10544184;28;20402;-33
2023/07/20 09:08:48;;;;;;;6.07;2.53;;;;;;;21.44;50.52;96614.47;10526594;28;20028;-34
2023/07/20 09:14:02;;;;;;;5.22;3.38;;;;;;;21.45;50.02;96611.06;10531504;28;20494;-34
2023/07/20 09:19:03;;;;;;;4.93;2.25;;;;;;;21.48;50.75;96613.56;10525305;28;20036;-33
2023/07/20 09:24:06;;;;;;;7.13;2.80;;;;;;;21.47;51.43;96611.88;10531777;28;20020;-33
2023/07/20 09:29:09;;;;;;;4.60;2.45;;;;;;;21.47;51.20;96609.31;10518525;28;20039;-33
2023/07/20 09:34:09;;;;;;;5.90;2.75;;;;;;;21.57;52.32;96603.22;10531327;28;20037;-33
2023/07/20 09:39:10;;;;;;;7.18;2.42;;;;;;;21.71;52.89;96600.56;10531622;28;20039;-34
2023/07/20 09:44:10;;;;;;;3.33;2.50;;;;;;;21.64;51.34;96594.63;10531023;28;20027;-34
2023/07/20 09:49:11;;;;;;;3.42;2.30;;;;;;;21.59;51.35;96590.47;10529139;28;20032;-34
2023/07/20 09:54:13;;;;;;;4.20;2.35;;;;;;;21.54;51.14;96585.44;10539626;28;20074;-33
2023/07/20 09:59:14;;;;;;;4.75;2.30;;;;;;;21.52;50.83;96578.69;10532477;28;20042;-33
2023/07/20 10:04:18;;;;;;;2.10;1.90;;;;;;;21.53;51.05;96573.59;10523209;28;20060;-33
2023/07/20 10:09:22;;;;;;;10.55;3.20;;;;;;;21.52;51.05;96568.50;10534155;28;20044;-33
2023/07/20 10:14:24;;;;;;;10.88;4.38;;;;;;;21.60;52.02;96569.22;10534447;28;20032;-34
2023/07/20 10:19:59;;;;;;;4.53;2.35;;;;;;;21.53;54.04;96547.25;10522290;28;20489;-33
2023/07/20 10:25:01;;;;;;;5.75;2.42;;;;;;;21.79;53.52;96563.88;10486729;28;20130;-34
2023/07/20 10:30:03;;;;;;;5.80;3.88;;;;;;;21.75;52.37;96554.59;10533754;28;20063;-34
2023/07/20 10:35:12;;;;;;;6.53;3.53;;;;;;;21.73;52.87;96553.75;10537611;28;20524;-35
2023/07/20 10:40:30;;;;;;;7.72;2.90;;;;;;;21.64;50.34;96543.69;10537432;28;20032;-34
2023/07/20 10:45:35;;;;;;;6.50;2.63;;;;;;;21.67;49.39;96538.59;10532765;28;20107;-33
2023/07/20 10:50:35;;;;;;;6.22;2.28;;;;;;;21.69;49.27;96533.44;10547286;28;20041;-34
2023/07/20 10:55:36;;;;;;;5.38;2.53;;;;;;;21.68;48.89;96537.72;10535181;28;20375;-34
2023/07/20 11:00:36;;;;;;;3.13;2.07;;;;;;;21.70;48.01;96535.97;10526823;28;20028;-34
2023/07/20 11:05:39;;;;;;;3.70;2.28;;;;;;;21.73;48.20;96535.94;10537040;28;20036;-34
2023/07/20 11:10:40;;;;;;;7.18;2.75;;;;;;;21.71;48.13;96526.66;10529230;28;20050;-34
2023/07/20 11:15:47;;;;;;;4.35;2.50;;;;;;;21.77;47.82;96512.09;10539388;28;20040;-33
2023/07/20 11:20:50;;;;;;;7.97;3.22;;;;;;;21.82;49.68;96507.75;10536103;28;20024;-34
2023/07/20 11:25:50;;;;;;;5.55;2.88;;;;;;;21.78;48.49;96495.94;10535690;28;20554;-34
2023/07/20 11:30:53;;;;;;;3.23;2.50;;;;;;;21.79;50.11;96512.03;10549439;28;20035;-33
2023/07/20 11:35:54;;;;;;;5.88;2.45;;;;;;;21.76;48.29;96492.56;10545123;28;20028;-34
2023/07/20 11:40:54;;;;;;;5.50;2.53;;;;;;;21.74;49.17;96494.28;10536702;28;20032;-33
2023/07/20 11:45:55;;;;;;;7.40;2.40;;;;;;;21.75;48.35;96484.94;10533538;28;20093;-33
2023/07/20 11:50:55;;;;;;;3.90;1.98;;;;;;;21.73;47.93;96490.06;10534789;28;20032;-33
2023/07/20 11:55:55;;;;;;;7.10;2.37;;;;;;;21.77;46.90;96484.06;10535212;28;20046;-34
2023/07/20 12:00:56;;;;;;;2.80;1.85;;;;;;;21.85;47.63;96477.13;10522857;28;20034;-33
2023/07/20 12:06:06;;;;;;;6.10;3.03;;;;;;;21.89;50.33;96478.75;10530247;28;20031;-33
2023/07/20 12:11:07;;;;;;;7.07;3.65;;;;;;;21.87;50.05;96472.84;10526964;28;20024;-33
2023/07/20 12:16:15;;;;;;;5.28;3.35;;;;;;;21.80;51.63;96468.72;10535435;28;20044;-34
2023/07/20 12:21:19;;;;;;;6.40;2.50;;;;;;;21.79;51.29;96456.84;10523344;28;20397;-33
2023/07/20 12:26:20;;;;;;;6.45;3.47;;;;;;;21.90;52.54;96459.22;10533942;28;20027;-34
2023/07/20 12:31:23;;;;;;;5.10;3.40;;;;;;;21.89;51.99;96450.72;10527477;28;20043;-36
2023/07/20 12:36:24;;;;;;;5.28;2.40;;;;;;;21.83;48.71;96453.38;10532919;28;20040;-33
2023/07/20 12:41:24;;;;;;;5.97;2.45;;;;;;;21.85;49.26;96443.13;10528100;28;20504;-34
2023/07/20 12:46:25;;;;;;;7.20;3.07;;;;;;;21.92;50.39;96437.94;10523497;28;20032;-33
2023/07/20 12:51:25;;;;;;;4.38;2.53;;;;;;;21.98;50.54;96427.59;10530291;28;20048;-33
2023/07/20 12:56:25;;;;;;;3.63;2.17;;;;;;;21.88;48.98;96415.91;10522938;28;20548;-33
2023/07/20 13:01:26;;;;;;;4.20;2.23;;;;;;;21.87;46.99;96418.47;10520071;28;20297;-33
2023/07/20 13:06:26;;;;;;;4.90;2.40;;;;;;;21.83;48.39;96420.25;10533020;28;20055;-33
2023/07/20 13:11:26;;;;;;;2.57;1.87;;;;;;;21.80;48.20;96422.00;10553967;28;20036;-34
2023/07/20 13:16:29;;;;;;;2.97;2.00;;;;;;;21.84;46.75;96404.09;10539306;28;20100;-33
2023/07/20 13:21:29;;;;;;;3.45;2.08;;;;;;;21.82;48.02;96405.78;10539426;28;20558;-34
2023/07/20 13:26:30;;;;;;;3.17;2.13;;;;;;;21.81;47.79;96399.03;10549224;28;20036;-33
2023/07/20 13:31:30;;;;;;;9.37;2.93;;;;;;;21.94;50.52;96404.75;10539769;28;20052;-34
2023/07/20 13:36:30;;;;;;;4.13;2.30;;;;;;;21.93;49.13;96393.72;10538922;28;20043;-34
2023/07/20 13:41:32;;;;;;;3.70;1.60;;;;;;;21.90;46.92;96391.22;10543453;28;20759;-33
2023/07/20 13:46:32;;;;;;;2.20;1.75;;;;;;;21.85;48.12;96394.72;10536723;28;20540;-33
2023/07/20 13:51:32;;;;;;;2.85;1.58;;;;;;;21.82;47.46;96387.13;10544010;28;20039;-34
2023/07/20 13:56:33;;;;;;;4.17;1.73;;;;;;;21.86;47.11;96389.59;10526415;28;20032;-33
2023/07/20 14:01:36;;;;;;;3.07;2.00;;;;;;;21.84;47.46;96383.69;10538963;28;20478;-33
2023/07/20 14:06:36;;;;;;;2.67;1.92;;;;;;;21.80;48.30;96382.06;10532117;28;20036;-33
2023/07/20 14:11:36;;;;;;;5.13;2.73;;;;;;;21.76;49.01;96372.81;10541449;28;20031;-33
2023/07/20 14:16:37;;;;;;;3.55;1.83;;;;;;;21.79;50.53;96361.69;10533821;28;20081;-34
2023/07/20 14:21:39;;;;;;;7.63;3.03;;;;;;;21.96;51.58;96370.72;10525282;28;20063;-33
2023/07/20 14:26:40;;;;;;;6.50;2.60;;;;;;;21.93;50.64;96365.69;10538244;28;20089;-35
2023/07/20 14:31:40;;;;;;;5.00;1.80;;;;;;;21.88;49.89;96362.38;10533044;28;20088;-34
2023/07/20 14:36:41;;;;;;;3.43;2.10;;;;;;;21.83;50.37;96350.59;10521835;28;20032;-33
2023/07/20 14:41:41;;;;;;;4.45;2.17;;;;;;;21.81;51.08;96342.97;10539426;28;20032;-33
2023/07/20 14:46:41;;;;;;;3.70;1.80;;;;;;;21.79;50.77;96347.25;10536146;28;20063;-33
2023/07/20 14:51:46;;;;;;;3.78;2.60;;;;;;;21.77;50.41;96338.81;10537603;28;20317;-34
2023/07/20 14:56:52;;;;;;;2.25;1.92;;;;;;;21.76;50.95;96334.56;10535393;28;20085;-33
2023/07/20 15:01:53;;;;;;;3.03;1.70;;;;;;;21.77;50.71;96333.69;10537172;28;20027;-33
2023/07/20 15:06:54;;;;;;;7.78;2.63;;;;;;;21.96;52.75;96332.47;10536009;28;20036;-34
2023/07/20 15:11:55;;;;;;;4.72;2.53;;;;;;;22.00;52.43;96329.00;10549480;28;20394;-33
2023/07/20 15:16:55;;;;;;;3.10;2.00;;;;;;;21.92;51.17;96320.69;10528358;28;20035;-34
2023/07/20 15:21:56;;;;;;;4.53;2.33;;;;;;;21.87;51.23;96327.56;10545307;28;20063;-34
2023/07/20 15:26:57;;;;;;;3.95;2.63;;;;;;;21.86;52.77;96308.03;10540688;28;20044;-33
2023/07/20 15:31:57;;;;;;;4.88;2.67;;;;;;;21.88;53.94;96306.28;10539512;28;20064;-34
2023/07/20 15:36:58;;;;;;;5.47;2.90;;;;;;;21.89;53.20;96305.41;10530999;28;20393;-33
2023/07/20 15:41:58;;;;;;;2.93;1.87;;;;;;;21.82;52.77;96295.38;10534396;28;20383;-34
2023/07/20 15:46:59;;;;;;;2.05;1.73;;;;;;;21.80;51.79;96292.84;10538298;28;20299;-33
2023/07/20 15:51:59;;;;;;;3.47;2.40;;;;;;;21.93;54.07;96294.31;10534500;28;20402;-34
2023/07/20 15:57:00;;;;;;;4.30;2.00;;;;;;;22.08;54.09;96285.50;10533513;28;20027;-34
2023/07/20 16:02:01;;;;;;;3.05;1.98;;;;;;;22.00;53.50;96283.13;10524460;28;20036;-33
2023/07/20 16:07:02;;;;;;;2.72;2.03;;;;;;;21.89;52.09;96272.28;10533203;28;20612;-34
2023/07/20 16:12:04;;;;;;;3.55;1.67;;;;;;;21.87;52.04;96280.81;10523468;28;20036;-33
2023/07/20 16:17:04;;;;;;;2.85;1.83;;;;;;;21.85;51.69;96283.44;10528516;28;20088;-33
2023/07/20 16:22:06;;;;;;;6.70;1.83;;;;;;;21.78;52.40;96273.38;10514596;28;20375;-33
2023/07/20 16:27:06;;;;;;;7.72;2.70;;;;;;;21.82;52.65;96268.19;10527541;28;20036;-32
2023/07/20 16:32:07;;;;;;;10.17;3.10;;;;;;;21.97;54.06;96265.31;10540819;28;20047;-34
2023/07/20 16:37:07;;;;;;;7.97;2.25;;;;;;;22.05;54.14;96271.09;10532732;28;20385;-34
2023/07/20 16:42:09;;;;;;;7.27;2.03;;;;;;;21.97;52.20;96272.97;10542853;28;20032;-34
2023/07/20 16:47:10;;;;;;;4.00;1.73;;;;;;;21.90;52.09;96273.13;10538440;28;20036;-33
2023/07/20 16:52:10;;;;;;;2.95;1.80;;;;;;;21.84;52.41;96263.91;10524390;28;20085;-33
2023/07/20 16:57:11;;;;;;;3.57;1.70;;;;;;;21.82;51.50;96268.19;10531495;28;20485;-33
2023/07/20 17:02:11;;;;;;;2.97;1.87;;;;;;;21.83;51.77;96262.25;10523650;28;20393;-34
2023/07/20 17:07:14;;;;;;;3.87;2.03;;;;;;;21.87;52.81;96261.28;10530755;28;20085;-34
2023/07/20 17:12:14;;;;;;;3.85;2.33;;;;;;;22.03;54.83;96257.56;10520689;28;20051;-34
2023/07/20 17:17:14;;;;;;;7.80;2.13;;;;;;;22.09;53.09;96267.63;10530044;28;20043;-34
2023/07/20 17:22:15;;;;;;;2.67;1.93;;;;;;;22.00;52.21;96262.72;10529319;28;20366;-33
2023/07/20 17:27:15;;;;;;;4.60;1.77;;;;;;;21.99;52.11;96263.56;10533249;28;20115;-33
2023/07/20 17:32:15;;;;;;;4.53;2.73;;;;;;;21.96;52.14;96261.09;10524840;28;20028;-34
2023/07/20 17:37:18;;;;;;;3.87;2.13;;;;;;;21.96;52.19;96258.53;10527091;28;20036;-36
2023/07/20 17:42:18;;;;;;;3.47;1.85;;;;;;;21.94;52.19;96255.19;10526919;28;20042;-33
2023/07/20 17:47:19;;;;;;;2.23;1.83;;;;;;;21.93;52.32;96261.16;10534093;28;20458;-33
2023/07/20 17:52:20;;;;;;;3.97;2.00;;;;;;;21.98;51.65;96253.44;10532092;28;20396;-34
2023/07/20 17:57:20;;;;;;;3.78;1.80;;;;;;;22.11;53.29;96259.94;10522710;28;20110;-33
2023/07/20 18:02:25;;;;;;;6.33;1.90;;;;;;;22.03;51.18;96257.56;10529192;28;20095;-34
2023/07/20 18:07:25;;;;;;;2.17;1.42;;;;;;;22.00;50.93;96261.88;10534627;28;20024;-34
2023/07/20 18:12:25;;;;;;;2.90;1.90;;;;;;;21.97;50.92;96256.84;10551092;28;20047;-32
2023/07/20 18:17:26;;;;;;;2.40;1.70;;;;;;;21.93;51.05;96258.63;10529798;28;20463;-35
2023/07/20 18:22:26;;;;;;;3.40;1.40;;;;;;;21.91;51.13;96257.78;10540547;28;20085;-34
2023/07/20 18:27:29;;;;;;;2.17;1.75;;;;;;;21.87;51.25;96245.16;10538961;28;20051;-34
2023/07/20 18:32:30;;;;;;;3.42;1.80;;;;;;;22.05;52.74;96260.91;10535335;28;20027;-34
2023/07/20 18:37:30;;;;;;;5.60;2.07;;;;;;;22.11;52.53;96258.22;10532457;28;20036;-33
2023/07/20 18:42:33;;;;;;;2.15;1.90;;;;;;;22.01;51.70;96249.09;10546383;28;20469;-34
2023/07/20 18:47:35;;;;;;;1.98;1.85;;;;;;;21.96;51.74;96260.25;10539542;28;20050;-34
2023/07/20 18:52:35;;;;;;;2.03;1.65;;;;;;;21.94;51.88;96260.28;10533502;28;20032;-34
2023/07/20 18:57:36;;;;;;;3.50;1.50;;;;;;;21.92;51.84;96267.16;10533969;28;20036;-33
2023/07/20 19:02:36;;;;;;;2.83;1.98;;;;;;;21.86;51.70;96274.06;10527587;28;20036;-33
2023/07/20 19:07:38;;;;;;;3.20;1.77;;;;;;;21.81;51.28;96271.59;10522231;28;20039;-33
2023/07/20 19:12:39;;;;;;;6.93;2.08;;;;;;;21.83;51.25;96264.78;10525048;28;20063;-34
2023/07/20 19:17:40;;;;;;;4.13;2.17;;;;;;;21.74;51.08;96257.28;10528112;28;20383;-34
2023/07/20 19:22:42;;;;;;;3.08;1.90;;;;;;;21.84;50.96;96276.66;10527962;28;20040;-34
2023/07/20 19:27:43;;;;;;;3.25;1.73;;;;;;;21.83;51.72;96286.88;10541769;28;20421;-34
2023/07/20 19:32:43;;;;;;;4.17;1.90;;;;;;;21.83;51.43;96284.31;10544577;28;20040;-33
2023/07/20 19:37:44;;;;;;;2.78;2.17;;;;;;;21.82;51.39;96287.75;10525461;28;20793;-33
2023/07/20 19:42:47;;;;;;;1.98;1.73;;;;;;;21.68;51.52;96290.56;10531010;28;20040;-33
2023/07/20 19:47:47;;;;;;;3.50;1.70;;;;;;;21.68;51.12;96290.56;10530471;28;20092;-35
2023/07/20 19:52:48;;;;;;;6.60;2.33;;;;;;;21.77;51.37;96286.97;10539163;28;20039;-34
2023/07/20 19:57:49;;;;;;;2.38;1.80;;;;;;;21.83;52.71;96297.91;10531814;28;20556;-34
2023/07/20 20:02:49;;;;;;;2.97;1.77;;;;;;;21.66;51.02;96305.03;10522644;28;20029;-34
2023/07/20 20:07:50;;;;;;;5.18;2.10;;;;;;;21.58;51.16;96303.47;10531520;28;20067;-34
2023/07/20 20:12:50;;;;;;;6.27;2.00;;;;;;;21.59;51.04;96306.00;10529434;28;20048;-32
2023/07/20 20:17:50;;;;;;;3.30;1.80;;;;;;;21.50;51.41;96311.25;10528179;28;20028;-34
2023/07/20 20:22:53;;;;;;;3.50;2.22;;;;;;;21.43;51.11;96313.94;10527278;28;20048;-34
2023/07/20 20:27:54;;;;;;;3.70;2.05;;;;;;;21.59;50.64;96310.25;10522192;28;20055;-34
2023/07/20 20:32:54;;;;;;;2.08;1.67;;;;;;;21.65;50.86;96316.09;10516607;28;20037;-34
2023/07/20 20:37:55;;;;;;;2.60;1.80;;;;;;;21.72;51.36;96327.84;10516448;28;20469;-33
2023/07/20 20:42:55;;;;;;;2.53;1.95;;;;;;;21.86;51.46;96322.47;10524523;28;20409;-33
2023/07/20 20:47:59;;;;;;;3.23;2.20;;;;;;;21.84;50.78;96322.53;10545421;28;20039;-33
2023/07/20 20:52:59;;;;;;;3.03;2.00;;;;;;;21.31;51.70;96319.25;10516596;28;20111;-33
2023/07/20 20:57:59;;;;;;;6.10;2.40;;;;;;;21.10;52.17;96315.38;10529960;28;20032;-33
2023/07/20 21:03:00;;;;;;;2.70;2.17;;;;;;;21.05;52.46;96314.59;10533124;28;20036;-33
2023/07/20 21:08:01;;;;;;;5.05;2.25;;;;;;;20.97;52.10;96306.25;10534238;28;20081;-33
2023/07/20 21:13:04;;;;;;;4.57;1.90;;;;;;;20.92;52.31;96320.75;10539196;28;20031;-33
2023/07/20 21:18:04;;;;;;;3.67;2.17;;;;;;;20.93;51.58;96317.34;10532381;28;20443;-34
2023/07/20 21:23:04;;;;;;;4.97;1.90;;;;;;;20.86;52.14;96320.00;10526999;28;20032;-33
2023/07/20 21:28:05;;;;;;;2.73;2.23;;;;;;;20.75;52.29;96315.06;10534702;28;20036;-33
2023/07/20 21:33:05;;;;;;;5.10;2.07;;;;;;;20.75;52.94;96322.69;10528204;28;20069;-33
2023/07/20 21:38:05;;;;;;;2.43;2.23;;;;;;;20.69;52.50;96306.66;10534711;28;20765;-34
2023/07/20 21:43:06;;;;;;;3.67;1.63;;;;;;;20.69;52.67;96307.50;10528829;28;20044;-33
2023/07/20 21:48:06;;;;;;;3.23;1.70;;;;;;;20.59;52.81;96313.59;10528129;28;20093;-33
2023/07/20 21:53:06;;;;;;;4.47;2.10;;;;;;;20.56;53.70;96308.53;10541147;28;20051;-33
2023/07/20 21:58:07;;;;;;;3.47;2.13;;;;;;;20.42;53.94;96318.09;10540482;28;20090;-34
2023/07/20 22:03:07;;;;;;;2.47;1.57;;;;;;;20.39;53.66;96302.84;10535664;28;20074;-33
2023/07/20 22:08:07;;;;;;;3.27;2.07;;;;;;;20.37;53.74;96302.91;10532419;28;20485;-33
2023/07/20 22:13:09;;;;;;;4.05;2.00;;;;;;;20.31;53.41;96297.91;10536737;28;20296;-33
2023/07/20 22:18:10;;;;;;;2.28;2.08;;;;;;;20.38;53.48;96298.63;10545163;28;20032;-33
2023/07/20 22:23:11;;;;;;;3.53;2.30;;;;;;;20.38;53.32;96301.19;10542753;28;20111;-33
2023/07/20 22:28:11;;;;;;;2.80;1.90;;;;;;;20.31;53.43;96308.06;10533537;28;20401;-33
2023/07/20 22:33:12;;;;;;;3.90;2.00;;;;;;;20.31;53.28;96303.00;10532645;28;20478;-33
2023/07/20 22:38:12;;;;;;;4.33;2.40;;;;;;;20.35;53.29;96297.84;10531729;28;20040;-33
2023/07/20 22:43:12;;;;;;;2.70;1.80;;;;;;;20.35;53.50;96294.47;10532339;28;20421;-34
2023/07/20 22:48:15;;;;;;;2.57;1.90;;;;;;;20.30;53.28;96303.84;10537309;28;20032;-33
2023/07/20 22:53:15;;;;;;;3.28;1.88;;;;;;;20.23;53.97;96302.25;10537000;28;20372;-34
2023/07/20 22:58:15;;;;;;;2.70;2.13;;;;;;;20.13;53.84;96288.84;10550435;28;20400;-33
2023/07/20 23:03:16;;;;;;;7.63;2.20;;;;;;;20.19;53.42;96298.91;10550374;28;20473;-34
2023/07/20 23:08:16;;;;;;;3.33;1.90;;;;;;;20.21;53.60;96297.22;10542359;28;20401;-34
2023/07/20 23:13:17;;;;;;;5.17;2.30;;;;;;;20.14;53.84;96284.59;10532852;28;20031;-33
2023/07/20 23:18:17;;;;;;;4.43;2.83;;;;;;;20.14;53.73;96287.13;10535700;28;20028;-33